sensor_id;sensor_type;location;lat;lon;timestamp;temperature;humidity
39045;DHT22;52192;52.002;5.956;2022-09-02T00:00:39;21.40;41.60
39045;DHT22;52192;52.002;5.956;2022-09-02T00:03:05;21.40;41.70
39045;DHT22;52192;52.002;5.956;2022-09-02T00:05:31;21.30;41.70
39045;DHT22;52192;52.002;5.956;2022-09-02T00:07:57;21.30;41.70
39045;DHT22;52192;52.002;5.956;2022-09-02T00:10:22;21.20;41.80
39045;DHT22;52192;52.002;5.956;2022-09-02T00:12:48;21.20;41.90
39045;DHT22;52192;52.002;5.956;2022-09-02T00:15:13;21.20;42.00
39045;DHT22;52192;52.002;5.956;2022-09-02T00:17:39;21.10;42.00
39045;DHT22;52192;52.002;5.956;2022-09-02T00:20:05;21.10;42.10
39045;DHT22;52192;52.002;5.956;2022-09-02T00:22:31;21.10;42.10
39045;DHT22;52192;52.002;5.956;2022-09-02T00:24:57;21.10;42.20
39045;DHT22;52192;52.002;5.956;2022-09-02T00:27:22;21.00;42.30
39045;DHT22;52192;52.002;5.956;2022-09-02T00:29:48;21.00;42.30
39045;DHT22;52192;52.002;5.956;2022-09-02T00:32:14;20.90;42.40
39045;DHT22;52192;52.002;5.956;2022-09-02T00:34:40;20.90;42.40
39045;DHT22;52192;52.002;5.956;2022-09-02T00:37:05;20.90;42.40
39045;DHT22;52192;52.002;5.956;2022-09-02T00:39:31;20.80;42.40
39045;DHT22;52192;52.002;5.956;2022-09-02T00:41:57;20.80;42.50
39045;DHT22;52192;52.002;5.956;2022-09-02T00:44:23;20.80;42.60
39045;DHT22;52192;52.002;5.956;2022-09-02T00:46:48;20.70;42.60
39045;DHT22;52192;52.002;5.956;2022-09-02T00:54:21;20.70;42.80
39045;DHT22;52192;52.002;5.956;2022-09-02T00:56:48;20.70;42.90
39045;DHT22;52192;52.002;5.956;2022-09-02T00:59:25;20.60;42.90
39045;DHT22;52192;52.002;5.956;2022-09-02T01:01:51;20.60;43.00
39045;DHT22;52192;52.002;5.956;2022-09-02T01:04:17;20.60;43.10
39045;DHT22;52192;52.002;5.956;2022-09-02T01:06:43;20.60;43.20
39045;DHT22;52192;52.002;5.956;2022-09-02T01:09:14;20.50;43.20
39045;DHT22;52192;52.002;5.956;2022-09-02T01:11:44;20.50;43.30
39045;DHT22;52192;52.002;5.956;2022-09-02T01:14:13;20.50;43.50
39045;DHT22;52192;52.002;5.956;2022-09-02T01:16:44;20.40;43.50
39045;DHT22;52192;52.002;5.956;2022-09-02T01:19:19;20.40;43.40
39045;DHT22;52192;52.002;5.956;2022-09-02T01:21:49;20.40;43.50
39045;DHT22;52192;52.002;5.956;2022-09-02T01:24:16;20.40;43.50
39045;DHT22;52192;52.002;5.956;2022-09-02T01:26:43;20.30;43.40
39045;DHT22;52192;52.002;5.956;2022-09-02T01:29:09;20.30;43.50
39045;DHT22;52192;52.002;5.956;2022-09-02T01:31:35;20.30;43.60
39045;DHT22;52192;52.002;5.956;2022-09-02T01:34:01;20.30;43.60
39045;DHT22;52192;52.002;5.956;2022-09-02T01:36:26;20.30;43.60
39045;DHT22;52192;52.002;5.956;2022-09-02T01:38:52;20.30;43.70
39045;DHT22;52192;52.002;5.956;2022-09-02T01:41:17;20.20;43.60
39045;DHT22;52192;52.002;5.956;2022-09-02T01:43:43;20.30;43.70
39045;DHT22;52192;52.002;5.956;2022-09-02T01:46:09;20.30;43.60
39045;DHT22;52192;52.002;5.956;2022-09-02T01:48:34;20.30;43.60
39045;DHT22;52192;52.002;5.956;2022-09-02T01:51:03;20.30;43.50
39045;DHT22;52192;52.002;5.956;2022-09-02T01:53:30;20.30;43.50
39045;DHT22;52192;52.002;5.956;2022-09-02T01:55:56;20.30;43.50
39045;DHT22;52192;52.002;5.956;2022-09-02T01:58:22;20.30;43.60
39045;DHT22;52192;52.002;5.956;2022-09-02T02:00:48;20.30;43.60
39045;DHT22;52192;52.002;5.956;2022-09-02T02:03:14;20.30;43.50
39045;DHT22;52192;52.002;5.956;2022-09-02T02:05:40;20.20;43.50
39045;DHT22;52192;52.002;5.956;2022-09-02T02:08:07;20.20;43.60
39045;DHT22;52192;52.002;5.956;2022-09-02T02:10:34;20.20;43.60
39045;DHT22;52192;52.002;5.956;2022-09-02T02:13:00;20.20;43.70
39045;DHT22;52192;52.002;5.956;2022-09-02T02:15:26;20.20;43.70
39045;DHT22;52192;52.002;5.956;2022-09-02T02:17:52;20.20;43.70
39045;DHT22;52192;52.002;5.956;2022-09-02T02:20:19;20.20;43.70
39045;DHT22;52192;52.002;5.956;2022-09-02T02:22:46;20.20;43.70
39045;DHT22;52192;52.002;5.956;2022-09-02T02:25:13;20.20;43.80
39045;DHT22;52192;52.002;5.956;2022-09-02T02:27:40;20.10;43.70
39045;DHT22;52192;52.002;5.956;2022-09-02T02:30:07;20.10;43.80
39045;DHT22;52192;52.002;5.956;2022-09-02T02:32:33;20.20;43.80
39045;DHT22;52192;52.002;5.956;2022-09-02T02:35:00;20.10;43.80
39045;DHT22;52192;52.002;5.956;2022-09-02T02:37:26;20.10;43.90
39045;DHT22;52192;52.002;5.956;2022-09-02T02:39:52;20.10;44.00
39045;DHT22;52192;52.002;5.956;2022-09-02T02:42:17;20.00;44.00
39045;DHT22;52192;52.002;5.956;2022-09-02T02:44:43;20.10;44.10
39045;DHT22;52192;52.002;5.956;2022-09-02T02:47:09;20.00;44.10
39045;DHT22;52192;52.002;5.956;2022-09-02T02:49:38;20.00;44.10
39045;DHT22;52192;52.002;5.956;2022-09-02T02:52:04;20.00;44.10
39045;DHT22;52192;52.002;5.956;2022-09-02T02:54:30;19.90;44.20
39045;DHT22;52192;52.002;5.956;2022-09-02T02:56:56;19.90;44.20
39045;DHT22;52192;52.002;5.956;2022-09-02T02:59:22;19.90;44.30
39045;DHT22;52192;52.002;5.956;2022-09-02T03:01:47;19.90;44.30
39045;DHT22;52192;52.002;5.956;2022-09-02T03:04:13;19.90;44.40
39045;DHT22;52192;52.002;5.956;2022-09-02T03:06:39;19.90;44.40
39045;DHT22;52192;52.002;5.956;2022-09-02T03:09:04;19.90;44.40
39045;DHT22;52192;52.002;5.956;2022-09-02T03:11:30;19.90;44.40
39045;DHT22;52192;52.002;5.956;2022-09-02T03:13:56;19.90;44.40
39045;DHT22;52192;52.002;5.956;2022-09-02T03:16:23;19.90;44.50
39045;DHT22;52192;52.002;5.956;2022-09-02T03:18:49;19.90;44.70
39045;DHT22;52192;52.002;5.956;2022-09-02T03:21:16;19.80;44.70
39045;DHT22;52192;52.002;5.956;2022-09-02T03:23:43;19.80;44.70
39045;DHT22;52192;52.002;5.956;2022-09-02T03:26:14;19.80;44.60
39045;DHT22;52192;52.002;5.956;2022-09-02T03:28:40;19.80;44.50
39045;DHT22;52192;52.002;5.956;2022-09-02T03:31:06;19.80;44.60
39045;DHT22;52192;52.002;5.956;2022-09-02T03:33:32;19.80;44.70
39045;DHT22;52192;52.002;5.956;2022-09-02T03:35:58;19.80;44.70
39045;DHT22;52192;52.002;5.956;2022-09-02T03:38:24;19.80;44.70
39045;DHT22;52192;52.002;5.956;2022-09-02T03:40:50;19.70;44.70
39045;DHT22;52192;52.002;5.956;2022-09-02T03:43:16;19.70;44.70
39045;DHT22;52192;52.002;5.956;2022-09-02T03:45:42;19.70;44.90
39045;DHT22;52192;52.002;5.956;2022-09-02T03:48:10;19.70;44.90
39045;DHT22;52192;52.002;5.956;2022-09-02T03:50:37;19.70;44.90
39045;DHT22;52192;52.002;5.956;2022-09-02T03:53:05;19.70;44.90
39045;DHT22;52192;52.002;5.956;2022-09-02T03:55:31;19.70;44.90
39045;DHT22;52192;52.002;5.956;2022-09-02T03:57:58;19.60;44.90
39045;DHT22;52192;52.002;5.956;2022-09-02T04:00:25;19.60;45.00
39045;DHT22;52192;52.002;5.956;2022-09-02T04:02:54;19.60;45.00
39045;DHT22;52192;52.002;5.956;2022-09-02T04:05:20;19.60;45.10
39045;DHT22;52192;52.002;5.956;2022-09-02T04:07:47;19.50;45.10
39045;DHT22;52192;52.002;5.956;2022-09-02T04:10:15;19.60;45.10
39045;DHT22;52192;52.002;5.956;2022-09-02T04:12:41;19.60;45.10
39045;DHT22;52192;52.002;5.956;2022-09-02T04:15:10;19.60;45.10
39045;DHT22;52192;52.002;5.956;2022-09-02T04:17:37;19.50;45.00
39045;DHT22;52192;52.002;5.956;2022-09-02T04:20:04;19.60;45.10
39045;DHT22;52192;52.002;5.956;2022-09-02T04:22:31;19.50;45.10
39045;DHT22;52192;52.002;5.956;2022-09-02T04:24:57;19.50;45.10
39045;DHT22;52192;52.002;5.956;2022-09-02T04:27:22;19.50;45.20
39045;DHT22;52192;52.002;5.956;2022-09-02T04:29:48;19.50;45.30
39045;DHT22;52192;52.002;5.956;2022-09-02T04:32:14;19.50;45.30
39045;DHT22;52192;52.002;5.956;2022-09-02T04:34:40;19.50;45.30
39045;DHT22;52192;52.002;5.956;2022-09-02T04:37:05;19.50;45.30
39045;DHT22;52192;52.002;5.956;2022-09-02T04:39:31;19.50;45.40
39045;DHT22;52192;52.002;5.956;2022-09-02T04:41:57;19.50;45.40
39045;DHT22;52192;52.002;5.956;2022-09-02T04:44:23;19.40;45.50
39045;DHT22;52192;52.002;5.956;2022-09-02T04:46:50;19.40;45.60
39045;DHT22;52192;52.002;5.956;2022-09-02T04:49:16;19.40;45.60
39045;DHT22;52192;52.002;5.956;2022-09-02T04:51:42;19.40;45.60
39045;DHT22;52192;52.002;5.956;2022-09-02T04:54:07;19.30;45.70
39045;DHT22;52192;52.002;5.956;2022-09-02T04:56:33;19.30;45.70
39045;DHT22;52192;52.002;5.956;2022-09-02T04:59:00;19.30;45.70
39045;DHT22;52192;52.002;5.956;2022-09-02T05:01:29;19.30;45.80
39045;DHT22;52192;52.002;5.956;2022-09-02T05:03:56;19.20;45.90
39045;DHT22;52192;52.002;5.956;2022-09-02T05:06:24;19.20;45.90
39045;DHT22;52192;52.002;5.956;2022-09-02T05:08:54;19.20;46.00
39045;DHT22;52192;52.002;5.956;2022-09-02T05:11:23;19.20;46.00
39045;DHT22;52192;52.002;5.956;2022-09-02T05:13:54;19.20;46.10
39045;DHT22;52192;52.002;5.956;2022-09-02T05:16:32;19.20;46.20
39045;DHT22;52192;52.002;5.956;2022-09-02T05:18:59;19.10;46.20
39045;DHT22;52192;52.002;5.956;2022-09-02T05:21:25;19.10;46.20
39045;DHT22;52192;52.002;5.956;2022-09-02T05:23:51;19.20;46.80
39045;DHT22;52192;52.002;5.956;2022-09-02T05:26:18;19.10;46.30
39045;DHT22;52192;52.002;5.956;2022-09-02T05:28:43;19.10;46.30
39045;DHT22;52192;52.002;5.956;2022-09-02T05:31:12;19.10;46.30
39045;DHT22;52192;52.002;5.956;2022-09-02T05:33:39;19.10;46.30
39045;DHT22;52192;52.002;5.956;2022-09-02T05:36:18;19.20;46.30
39045;DHT22;52192;52.002;5.956;2022-09-02T05:38:45;19.20;46.20
39045;DHT22;52192;52.002;5.956;2022-09-02T05:41:20;19.10;46.30
39045;DHT22;52192;52.002;5.956;2022-09-02T05:43:48;19.10;46.40
39045;DHT22;52192;52.002;5.956;2022-09-02T05:46:16;19.10;46.40
39045;DHT22;52192;52.002;5.956;2022-09-02T05:48:44;19.20;46.40
39045;DHT22;52192;52.002;5.956;2022-09-02T05:51:29;19.30;46.40
39045;DHT22;52192;52.002;5.956;2022-09-02T05:53:57;19.30;46.30
39045;DHT22;52192;52.002;5.956;2022-09-02T05:56:23;19.40;46.30
39045;DHT22;52192;52.002;5.956;2022-09-02T05:58:50;19.40;46.40
39045;DHT22;52192;52.002;5.956;2022-09-02T06:01:17;19.50;46.30
39045;DHT22;52192;52.002;5.956;2022-09-02T06:03:43;19.50;46.40
39045;DHT22;52192;52.002;5.956;2022-09-02T06:06:09;19.50;46.30
39045;DHT22;52192;52.002;5.956;2022-09-02T06:08:35;19.60;46.20
39045;DHT22;52192;52.002;5.956;2022-09-02T06:11:02;19.60;46.20
39045;DHT22;52192;52.002;5.956;2022-09-02T06:13:28;19.60;46.30
39045;DHT22;52192;52.002;5.956;2022-09-02T06:15:55;19.70;46.30
39045;DHT22;52192;52.002;5.956;2022-09-02T06:18:22;19.70;46.10
39045;DHT22;52192;52.002;5.956;2022-09-02T06:20:48;19.80;46.00
39045;DHT22;52192;52.002;5.956;2022-09-02T06:23:15;19.80;46.00
39045;DHT22;52192;52.002;5.956;2022-09-02T06:25:43;19.80;46.10
39045;DHT22;52192;52.002;5.956;2022-09-02T06:28:10;19.80;46.10
39045;DHT22;52192;52.002;5.956;2022-09-02T06:30:39;19.80;46.10
39045;DHT22;52192;52.002;5.956;2022-09-02T06:33:05;19.80;46.20
39045;DHT22;52192;52.002;5.956;2022-09-02T06:35:35;19.70;46.20
39045;DHT22;52192;52.002;5.956;2022-09-02T06:38:03;19.70;46.30
39045;DHT22;52192;52.002;5.956;2022-09-02T06:40:29;19.70;46.40
39045;DHT22;52192;52.002;5.956;2022-09-02T06:42:55;19.60;46.40
39045;DHT22;52192;52.002;5.956;2022-09-02T06:45:20;19.60;46.50
39045;DHT22;52192;52.002;5.956;2022-09-02T06:47:49;19.60;46.50
39045;DHT22;52192;52.002;5.956;2022-09-02T06:50:14;19.60;46.60
39045;DHT22;52192;52.002;5.956;2022-09-02T06:52:40;19.70;46.60
39045;DHT22;52192;52.002;5.956;2022-09-02T06:55:06;19.80;46.50
39045;DHT22;52192;52.002;5.956;2022-09-02T06:57:32;20.00;46.30
39045;DHT22;52192;52.002;5.956;2022-09-02T06:59:58;20.10;46.20
39045;DHT22;52192;52.002;5.956;2022-09-02T07:02:24;20.20;46.00
39045;DHT22;52192;52.002;5.956;2022-09-02T07:04:49;20.40;45.90
39045;DHT22;52192;52.002;5.956;2022-09-02T07:07:39;20.50;45.70
39045;DHT22;52192;52.002;5.956;2022-09-02T07:10:08;20.60;45.70
39045;DHT22;52192;52.002;5.956;2022-09-02T07:12:36;20.70;45.70
39045;DHT22;52192;52.002;5.956;2022-09-02T07:15:02;20.80;45.50
39045;DHT22;52192;52.002;5.956;2022-09-02T07:17:28;21.00;45.50
39045;DHT22;52192;52.002;5.956;2022-09-02T07:19:54;21.00;45.40
39045;DHT22;52192;52.002;5.956;2022-09-02T07:22:24;21.00;45.40
39045;DHT22;52192;52.002;5.956;2022-09-02T07:24:49;21.10;45.30
39045;DHT22;52192;52.002;5.956;2022-09-02T07:27:15;21.20;45.10
39045;DHT22;52192;52.002;5.956;2022-09-02T07:29:41;21.30;45.00
39045;DHT22;52192;52.002;5.956;2022-09-02T07:32:09;21.30;45.00
39045;DHT22;52192;52.002;5.956;2022-09-02T07:34:35;21.40;44.90
39045;DHT22;52192;52.002;5.956;2022-09-02T07:37:01;21.50;44.80
39045;DHT22;52192;52.002;5.956;2022-09-02T07:39:26;21.60;44.80
39045;DHT22;52192;52.002;5.956;2022-09-02T07:41:52;21.60;44.60
39045;DHT22;52192;52.002;5.956;2022-09-02T07:44:19;21.70;44.40
39045;DHT22;52192;52.002;5.956;2022-09-02T07:46:45;21.70;44.30
39045;DHT22;52192;52.002;5.956;2022-09-02T07:49:13;21.80;44.30
39045;DHT22;52192;52.002;5.956;2022-09-02T07:51:43;21.90;44.40
39045;DHT22;52192;52.002;5.956;2022-09-02T07:54:10;22.00;44.30
39045;DHT22;52192;52.002;5.956;2022-09-02T07:56:37;22.20;44.20
39045;DHT22;52192;52.002;5.956;2022-09-02T07:59:03;22.20;44.00
39045;DHT22;52192;52.002;5.956;2022-09-02T08:01:29;22.30;43.90
39045;DHT22;52192;52.002;5.956;2022-09-02T08:03:55;22.40;43.80
39045;DHT22;52192;52.002;5.956;2022-09-02T08:06:21;22.40;43.80
39045;DHT22;52192;52.002;5.956;2022-09-02T08:08:52;22.40;43.80
39045;DHT22;52192;52.002;5.956;2022-09-02T08:11:18;22.40;43.90
39045;DHT22;52192;52.002;5.956;2022-09-02T08:13:44;22.50;44.10
39045;DHT22;52192;52.002;5.956;2022-09-02T08:16:10;22.60;44.00
39045;DHT22;52192;52.002;5.956;2022-09-02T08:18:36;22.70;43.90
39045;DHT22;52192;52.002;5.956;2022-09-02T08:21:02;22.80;43.70
39045;DHT22;52192;52.002;5.956;2022-09-02T08:23:28;22.90;43.40
39045;DHT22;52192;52.002;5.956;2022-09-02T08:25:54;23.00;43.40
39045;DHT22;52192;52.002;5.956;2022-09-02T08:28:19;23.10;43.20
39045;DHT22;52192;52.002;5.956;2022-09-02T08:30:45;23.10;43.10
39045;DHT22;52192;52.002;5.956;2022-09-02T08:33:11;23.30;43.00
39045;DHT22;52192;52.002;5.956;2022-09-02T08:35:37;23.40;43.00
39045;DHT22;52192;52.002;5.956;2022-09-02T08:38:03;23.50;42.90
39045;DHT22;52192;52.002;5.956;2022-09-02T08:40:40;23.60;42.80
39045;DHT22;52192;52.002;5.956;2022-09-02T08:43:35;23.70;42.50
39045;DHT22;52192;52.002;5.956;2022-09-02T08:46:05;23.70;42.50
39045;DHT22;52192;52.002;5.956;2022-09-02T08:48:50;23.80;42.40
39045;DHT22;52192;52.002;5.956;2022-09-02T08:51:29;23.90;42.40
39045;DHT22;52192;52.002;5.956;2022-09-02T08:54:09;23.90;42.20
39045;DHT22;52192;52.002;5.956;2022-09-02T08:56:36;24.00;42.20
39045;DHT22;52192;52.002;5.956;2022-09-02T08:59:02;24.00;42.10
39045;DHT22;52192;52.002;5.956;2022-09-02T09:01:44;24.00;42.10
39045;DHT22;52192;52.002;5.956;2022-09-02T09:10:24;24.20;42.10
39045;DHT22;52192;52.002;5.956;2022-09-02T09:13:17;24.20;42.10
39045;DHT22;52192;52.002;5.956;2022-09-02T09:15:59;24.30;42.70
39045;DHT22;52192;52.002;5.956;2022-09-02T09:18:40;24.40;42.00
39045;DHT22;52192;52.002;5.956;2022-09-02T09:21:09;24.40;42.00
39045;DHT22;52192;52.002;5.956;2022-09-02T09:23:37;24.30;41.90
39045;DHT22;52192;52.002;5.956;2022-09-02T09:26:17;24.40;41.90
39045;DHT22;52192;52.002;5.956;2022-09-02T09:28:49;24.40;41.90
39045;DHT22;52192;52.002;5.956;2022-09-02T09:31:20;24.50;41.90
39045;DHT22;52192;52.002;5.956;2022-09-02T09:41:55;25.10;41.30
39045;DHT22;52192;52.002;5.956;2022-09-02T09:44:47;25.10;41.20
39045;DHT22;52192;52.002;5.956;2022-09-02T09:47:17;25.20;41.10
39045;DHT22;52192;52.002;5.956;2022-09-02T09:49:48;25.30;41.10
39045;DHT22;52192;52.002;5.956;2022-09-02T09:52:28;25.40;41.00
39045;DHT22;52192;52.002;5.956;2022-09-02T09:55:11;25.50;41.40
39045;DHT22;52192;52.002;5.956;2022-09-02T09:57:41;25.60;40.90
39045;DHT22;52192;52.002;5.956;2022-09-02T10:02:52;25.80;40.70
39045;DHT22;52192;52.002;5.956;2022-09-02T10:08:20;26.20;40.30
39045;DHT22;52192;52.002;5.956;2022-09-02T10:13:29;26.60;40.00
39045;DHT22;52192;52.002;5.956;2022-09-02T10:18:54;26.80;39.70
39045;DHT22;52192;52.002;5.956;2022-09-02T10:24:39;27.10;39.40
39045;DHT22;52192;52.002;5.956;2022-09-02T10:27:07;27.20;39.10
39045;DHT22;52192;52.002;5.956;2022-09-02T10:34:50;27.50;39.10
39045;DHT22;52192;52.002;5.956;2022-09-02T10:37:20;27.60;39.00
39045;DHT22;52192;52.002;5.956;2022-09-02T10:45:29;28.20;38.60
39045;DHT22;52192;52.002;5.956;2022-09-02T10:47:59;28.30;38.50
39045;DHT22;52192;52.002;5.956;2022-09-02T10:50:41;28.30;38.40
39045;DHT22;52192;52.002;5.956;2022-09-02T10:55:56;28.40;38.40
39045;DHT22;52192;52.002;5.956;2022-09-02T11:01:10;28.50;38.00
39045;DHT22;52192;52.002;5.956;2022-09-02T11:03:43;28.50;38.20
39045;DHT22;52192;52.002;5.956;2022-09-02T11:06:57;28.60;38.20
39045;DHT22;52192;52.002;5.956;2022-09-02T11:09:32;28.70;38.00
39045;DHT22;52192;52.002;5.956;2022-09-02T11:12:06;28.80;37.80
39045;DHT22;52192;52.002;5.956;2022-09-02T11:25:30;29.20;37.50
39045;DHT22;52192;52.002;5.956;2022-09-02T11:30:50;29.10;37.60
39045;DHT22;52192;52.002;5.956;2022-09-02T11:36:23;29.00;37.10
39045;DHT22;52192;52.002;5.956;2022-09-02T11:49:59;29.50;36.20
39045;DHT22;52192;52.002;5.956;2022-09-02T11:52:58;29.70;35.60
39045;DHT22;52192;52.002;5.956;2022-09-02T11:55:40;29.90;34.70
39045;DHT22;52192;52.002;5.956;2022-09-02T11:58:07;29.80;34.00
39045;DHT22;52192;52.002;5.956;2022-09-02T12:03:14;29.80;33.90
39045;DHT22;52192;52.002;5.956;2022-09-02T12:08:13;30.20;33.70
39045;DHT22;52192;52.002;5.956;2022-09-02T12:11:04;30.20;33.20
39045;DHT22;52192;52.002;5.956;2022-09-02T12:13:42;30.10;33.30
39045;DHT22;52192;52.002;5.956;2022-09-02T12:21:26;30.90;33.00
39045;DHT22;52192;52.002;5.956;2022-09-02T12:31:48;31.60;31.70
39045;DHT22;52192;52.002;5.956;2022-09-02T12:36:52;31.20;31.50
39045;DHT22;52192;52.002;5.956;2022-09-02T12:44:25;31.40;31.30
39045;DHT22;52192;52.002;5.956;2022-09-02T12:47:22;31.60;31.10
39045;DHT22;52192;52.002;5.956;2022-09-02T12:55:17;31.40;30.80
39045;DHT22;52192;52.002;5.956;2022-09-02T12:57:53;31.20;30.70
39045;DHT22;52192;52.002;5.956;2022-09-02T13:12:17;32.00;30.60
39045;DHT22;52192;52.002;5.956;2022-09-02T13:14:51;32.30;30.50
39045;DHT22;52192;52.002;5.956;2022-09-02T13:26:38;33.20;29.80
39045;DHT22;52192;52.002;5.956;2022-09-02T13:31:26;32.70;30.00
39045;DHT22;52192;52.002;5.956;2022-09-02T13:34:11;32.00;30.30
39045;DHT22;52192;52.002;5.956;2022-09-02T13:36:43;31.50;30.80
39045;DHT22;52192;52.002;5.956;2022-09-02T13:41:46;30.80;31.20
39045;DHT22;52192;52.002;5.956;2022-09-02T13:44:24;30.60;31.30
39045;DHT22;52192;52.002;5.956;2022-09-02T13:49:24;30.30;31.60
39045;DHT22;52192;52.002;5.956;2022-09-02T13:51:53;30.10;31.80
39045;DHT22;52192;52.002;5.956;2022-09-02T13:54:35;30.00;31.70
39045;DHT22;52192;52.002;5.956;2022-09-02T13:57:04;29.90;31.70
39045;DHT22;52192;52.002;5.956;2022-09-02T13:59:48;29.90;31.90
39045;DHT22;52192;52.002;5.956;2022-09-02T14:05:09;29.90;32.10
39045;DHT22;52192;52.002;5.956;2022-09-02T14:07:43;29.80;32.10
39045;DHT22;52192;52.002;5.956;2022-09-02T14:10:15;29.80;32.20
39045;DHT22;52192;52.002;5.956;2022-09-02T14:12:41;29.80;32.30
39045;DHT22;52192;52.002;5.956;2022-09-02T14:15:12;29.70;32.00
39045;DHT22;52192;52.002;5.956;2022-09-02T14:17:39;29.60;32.20
39045;DHT22;52192;52.002;5.956;2022-09-02T14:22:39;29.80;32.20
39045;DHT22;52192;52.002;5.956;2022-09-02T14:25:14;29.80;32.00
39045;DHT22;52192;52.002;5.956;2022-09-02T14:27:57;29.80;32.10
39045;DHT22;52192;52.002;5.956;2022-09-02T14:30:32;29.70;32.10
39045;DHT22;52192;52.002;5.956;2022-09-02T14:35:57;29.60;32.00
39045;DHT22;52192;52.002;5.956;2022-09-02T14:38:24;29.60;32.10
39045;DHT22;52192;52.002;5.956;2022-09-02T14:41:08;29.70;32.10
39045;DHT22;52192;52.002;5.956;2022-09-02T14:44:11;30.00;32.00
39045;DHT22;52192;52.002;5.956;2022-09-02T14:46:44;30.40;31.70
39045;DHT22;52192;52.002;5.956;2022-09-02T14:49:20;30.60;31.40
39045;DHT22;52192;52.002;5.956;2022-09-02T14:51:50;30.60;31.30
39045;DHT22;52192;52.002;5.956;2022-09-02T14:57:06;30.60;31.10
39045;DHT22;52192;52.002;5.956;2022-09-02T14:59:43;30.80;30.90
39045;DHT22;52192;52.002;5.956;2022-09-02T15:02:38;31.10;30.80
39045;DHT22;52192;52.002;5.956;2022-09-02T15:05:07;31.20;30.50
39045;DHT22;52192;52.002;5.956;2022-09-02T15:07:33;31.30;31.00
39045;DHT22;52192;52.002;5.956;2022-09-02T15:09:59;31.40;30.60
39045;DHT22;52192;52.002;5.956;2022-09-02T15:12:31;31.40;30.30
39045;DHT22;52192;52.002;5.956;2022-09-02T15:14:58;31.50;30.20
39045;DHT22;52192;52.002;5.956;2022-09-02T15:17:24;31.50;30.00
39045;DHT22;52192;52.002;5.956;2022-09-02T15:19:50;31.50;30.00
39045;DHT22;52192;52.002;5.956;2022-09-02T15:22:17;31.30;30.00
39045;DHT22;52192;52.002;5.956;2022-09-02T15:24:44;31.10;30.10
39045;DHT22;52192;52.002;5.956;2022-09-02T15:27:10;30.90;30.40
39045;DHT22;52192;52.002;5.956;2022-09-02T15:29:37;30.70;30.60
39045;DHT22;52192;52.002;5.956;2022-09-02T15:32:03;30.70;30.50
39045;DHT22;52192;52.002;5.956;2022-09-02T15:34:30;30.90;30.30
39045;DHT22;52192;52.002;5.956;2022-09-02T15:36:56;30.80;30.40
39045;DHT22;52192;52.002;5.956;2022-09-02T15:39:23;31.00;30.40
39045;DHT22;52192;52.002;5.956;2022-09-02T15:41:50;32.10;30.00
39045;DHT22;52192;52.002;5.956;2022-09-02T15:44:19;33.20;29.50
39045;DHT22;52192;52.002;5.956;2022-09-02T15:46:44;34.40;28.80
39045;DHT22;52192;52.002;5.956;2022-09-02T15:49:12;35.20;28.20
39045;DHT22;52192;52.002;5.956;2022-09-02T15:51:42;35.70;27.50
39045;DHT22;52192;52.002;5.956;2022-09-02T15:54:10;36.10;27.30
39045;DHT22;52192;52.002;5.956;2022-09-02T15:56:38;36.20;27.10
39045;DHT22;52192;52.002;5.956;2022-09-02T15:59:08;36.10;26.90
39045;DHT22;52192;52.002;5.956;2022-09-02T16:01:45;35.50;27.00
39045;DHT22;52192;52.002;5.956;2022-09-02T16:04:12;34.60;27.30
39045;DHT22;52192;52.002;5.956;2022-09-02T16:06:41;33.60;27.70
39045;DHT22;52192;52.002;5.956;2022-09-02T16:09:08;32.70;28.10
39045;DHT22;52192;52.002;5.956;2022-09-02T16:11:39;32.00;28.60
39045;DHT22;52192;52.002;5.956;2022-09-02T16:14:05;31.60;28.90
39045;DHT22;52192;52.002;5.956;2022-09-02T16:16:31;31.20;29.10
39045;DHT22;52192;52.002;5.956;2022-09-02T16:18:57;30.90;29.30
39045;DHT22;52192;52.002;5.956;2022-09-02T16:21:23;30.60;29.50
39045;DHT22;52192;52.002;5.956;2022-09-02T16:23:50;30.40;29.60
39045;DHT22;52192;52.002;5.956;2022-09-02T16:26:33;30.20;29.80
39045;DHT22;52192;52.002;5.956;2022-09-02T16:29:02;30.00;29.90
39045;DHT22;52192;52.002;5.956;2022-09-02T16:31:33;29.90;30.00
39045;DHT22;52192;52.002;5.956;2022-09-02T16:34:03;29.70;30.10
39045;DHT22;52192;52.002;5.956;2022-09-02T16:36:32;29.70;30.30
39045;DHT22;52192;52.002;5.956;2022-09-02T16:38:58;29.60;30.60
39045;DHT22;52192;52.002;5.956;2022-09-02T16:41:26;29.40;30.70
39045;DHT22;52192;52.002;5.956;2022-09-02T16:43:57;29.40;30.80
39045;DHT22;52192;52.002;5.956;2022-09-02T16:46:24;29.30;30.90
39045;DHT22;52192;52.002;5.956;2022-09-02T16:48:50;29.30;31.00
39045;DHT22;52192;52.002;5.956;2022-09-02T16:51:16;29.30;31.70
39045;DHT22;52192;52.002;5.956;2022-09-02T16:53:43;29.20;31.10
39045;DHT22;52192;52.002;5.956;2022-09-02T16:57:31;29.00;30.50
39045;DHT22;52192;52.002;5.956;2022-09-02T16:59:57;28.90;31.10
39045;DHT22;52192;52.002;5.956;2022-09-02T17:02:23;28.80;31.20
39045;DHT22;52192;52.002;5.956;2022-09-02T17:04:49;28.70;31.30
39045;DHT22;52192;52.002;5.956;2022-09-02T17:07:15;28.60;31.40
39045;DHT22;52192;52.002;5.956;2022-09-02T17:09:40;28.60;31.50
39045;DHT22;52192;52.002;5.956;2022-09-02T17:12:06;28.60;31.60
39045;DHT22;52192;52.002;5.956;2022-09-02T17:14:32;28.50;31.70
39045;DHT22;52192;52.002;5.956;2022-09-02T17:16:57;28.40;31.80
39045;DHT22;52192;52.002;5.956;2022-09-02T17:19:23;28.40;31.90
39045;DHT22;52192;52.002;5.956;2022-09-02T17:21:51;28.30;32.00
39045;DHT22;52192;52.002;5.956;2022-09-02T17:24:18;28.30;32.10
39045;DHT22;52192;52.002;5.956;2022-09-02T17:26:46;28.20;32.20
39045;DHT22;52192;52.002;5.956;2022-09-02T17:29:14;28.10;32.40
39045;DHT22;52192;52.002;5.956;2022-09-02T17:31:44;28.00;32.50
39045;DHT22;52192;52.002;5.956;2022-09-02T17:34:09;27.90;32.60
39045;DHT22;52192;52.002;5.956;2022-09-02T17:36:37;27.90;32.70
39045;DHT22;52192;52.002;5.956;2022-09-02T17:39:06;27.80;32.70
39045;DHT22;52192;52.002;5.956;2022-09-02T17:41:32;27.70;32.70
39045;DHT22;52192;52.002;5.956;2022-09-02T17:44:16;27.60;32.90
39045;DHT22;52192;52.002;5.956;2022-09-02T17:46:43;27.60;33.10
39045;DHT22;52192;52.002;5.956;2022-09-02T17:49:09;27.50;33.20
39045;DHT22;52192;52.002;5.956;2022-09-02T17:51:35;27.40;33.30
39045;DHT22;52192;52.002;5.956;2022-09-02T17:54:01;27.30;33.40
39045;DHT22;52192;52.002;5.956;2022-09-02T18:07:54;27.00;34.00
39045;DHT22;52192;52.002;5.956;2022-09-02T18:09:58;26.90;34.40
39045;DHT22;52192;52.002;5.956;2022-09-02T18:12:23;26.80;35.80
39045;DHT22;52192;52.002;5.956;2022-09-02T18:14:54;26.70;36.00
39045;DHT22;52192;52.002;5.956;2022-09-02T18:45:14;25.50;38.10
39045;DHT22;52192;52.002;5.956;2022-09-02T18:47:55;25.60;38.20
39045;DHT22;52192;52.002;5.956;2022-09-02T18:50:28;25.50;38.10